Big Spring, Illinois
Current Conditions -  °F | °C
As of 4:53 AM on Saturday 25 Oct 2014 (Local Time) from KMTO Reporting Station
Clear Clear  
Wind Chill: 58°   Ceiling: Unl
Heat Index: 58°   Visibility: 10mi
Dew Point: 53°   Wind: 7mph
Humidity: 84%   Direction: 220°SW
Pressure: 29.95"   Gusts: NA
Location:  39.3144°N, 88.4504°W
Report Text: KMTO 250953Z AUTO 22006KT 10SM CLR 14/12 A2995 RMK AO2 SLP138 T01440117
Loading
Personal Weather Stations






























Interactive Weather Map
Tropical Storm Tracking
New forecast layout! Learn more

10-Day Weather Forecast

Advertisements
Track Severe Weather on mobile